Latest Weather Observations for Century Mine

IDQ60801

Issued at 9:02 pm EST Friday 31 July 2015 (issued every 30 minutes, with the page automatically refreshed every 10 minutes)

About weather observations | Map of weather stations | Latest weather observations for QLD | Other Formats
Station Details ID: 029167 Name: CENTURY MINE Lat: -18.76 Lon: 138.71 Height: 126.8 m
Data from the previous 72 hours. | See also: Recent months at Century Mine
Date/Time
EST
Temp
°C
App
Temp
°C
Dew
Point
Rel
Hum
%
Delta-T
°C
Wind Press
QNH
hPa
Press
MSL
hPa
Rain
since 9 am
mm
Dir
 
Spd
km/h
Gust
km/h
Spd
kts
Gust
kts
31/09:00pm 18.1 14.8 -0.2 29 8.0 S 7 9 4 5 1016.6 1016.2 0.0
31/08:30pm 19.1 16.0 0.2 28 8.4 S 6 6 3 3 1016.5 1016.1 0.0
31/08:00pm 19.8 16.9 -0.8 25 9.0 SE 4 6 2 3 1016.0 1015.6 0.0
31/07:30pm 21.9 18.7 -0.8 22 10.1 SE 6 7 3 4 1015.5 1015.1 0.0
31/07:00pm 25.1 21.8 -0.1 19 11.6 SE 7 9 4 5 1015.3 1014.9 0.0
31/06:30pm 26.9 23.1 -1.0 16 12.9 ESE 9 13 5 7 1015.1 1014.7 0.0
31/06:00pm 28.6 24.5 -0.5 15 13.7 ESE 11 17 6 9 1014.9 1014.5 0.0
31/05:30pm 29.4 25.2 -0.9 14 14.3 E 11 17 6 9 1014.8 1014.4 0.0
31/05:00pm 29.9 25.8 -0.5 14 14.5 SE 11 19 6 10 1014.8 1014.4 0.0
31/04:30pm 30.1 25.5 -1.3 13 14.8 E 13 20 7 11 1014.9 1014.5 0.0
31/04:00pm 30.6 27.3 0.1 14 14.7 ESE 7 13 4 7 1015.0 1014.6 0.0
31/03:30pm 29.9 26.7 0.5 15 14.2 ESE 7 15 4 8 1015.4 1015.0 0.0
31/03:00pm 30.4 26.3 -0.1 14 14.6 ENE 11 20 6 11 1015.7 1015.3 0.0
31/02:30pm 29.6 25.2 0.2 15 14.1 E 13 22 7 12 1016.3 1015.9 0.0
31/02:00pm 29.9 25.1 0.5 15 14.2 NE 15 20 8 11 1016.7 1016.3 0.0
31/01:30pm 29.4 25.0 0.1 15 14.0 E 13 20 7 11 1017.2 1016.8 0.0
31/01:00pm 28.6 23.8 0.3 16 13.5 SE 15 22 8 12 1017.9 1017.5 0.0
31/12:30pm 28.5 23.8 1.1 17 13.3 E 15 22 8 12 1018.4 1018.1 0.0
31/12:00pm 27.6 22.1 0.4 17 12.9 E 19 30 10 16 1018.8 1018.5 0.0
31/11:30am 27.7 22.0 0.5 17 13.0 ENE 20 32 11 17 1019.2 1018.9 0.0
31/11:00am 27.5 22.1 1.1 18 12.7 E 19 28 10 15 1019.5 1019.2 0.0
31/10:30am 26.6 20.9 0.4 18 12.4 E 20 32 11 17 1019.8 1019.5 0.0
31/10:00am 26.0 20.6 1.3 20 11.8 ESE 19 28 10 15 1020.1 1019.7 0.0
31/09:30am 24.6 19.6 1.5 22 11.0 ESE 17 28 9 15 1020.2 1019.8 0.0
31/09:00am 22.2 17.6 1.8 26 9.5 ESE 15 19 8 10 1020.0 1019.6 0.0
31/08:30am 20.1 17.5 3.3 33 8.0 E 6 9 3 5 1019.7 1019.4 0.0
31/08:00am 17.5 15.3 5.1 44 6.0 SSE 6 9 3 5 1019.4 1019.1 0.0
31/07:30am 14.0 11.5 4.6 53 4.4 S 7 7 4 4 1019.1 1018.8 0.0
31/07:00am 13.8 11.3 4.7 54 4.2 S 7 9 4 5 1018.8 1018.5 0.0
31/06:30am 14.6 12.0 4.0 49 4.9 SSW 7 9 4 5 1018.5 1018.2 0.0
31/06:00am 17.6 14.8 5.2 44 6.0 SSE 9 15 5 8 1018.0 1017.6 0.0
31/05:30am 15.9 13.2 5.5 50 5.0 SSE 9 11 5 6 1018.0 1017.6 0.0
31/05:00am 14.4 11.9 4.7 52 4.5 SSE 7 9 4 5 1017.9 1017.5 0.0
31/04:30am 15.8 13.4 5.1 49 5.1 SSW 7 9 4 5 1018.0 1017.6 0.0
31/04:00am 16.4 13.8 6.0 50 5.1 SSW 9 9 5 5 1018.0 1017.6 0.0
31/03:30am 15.9 13.4 4.9 48 5.2 S 7 9 4 5 1018.1 1017.8 0.0
31/03:00am 16.8 14.5 5.7 48 5.4 SSE 7 9 4 5 1018.1 1017.8 0.0
31/02:30am 17.2 15.7 5.2 45 5.8 SSW 2 9 1 5 1018.4 1018.1 0.0
31/02:00am 17.5 15.8 6.1 47 5.6 SSE 4 7 2 4 1018.5 1018.2 0.0
31/01:30am 16.8 14.3 4.5 44 5.8 SSW 7 9 4 5 1018.7 1018.4 0.0
31/01:00am 18.0 15.7 5.9 45 5.9 SSW 7 9 4 5 1018.9 1018.6 0.0
31/12:30am 16.5 14.0 4.9 46 5.5 SSW 7 7 4 4 1019.2 1018.9 0.0
31/12:00am 16.6 15.4 4.6 45 5.7 CALM 0 0 0 0 1019.3 1019.0 0.0
 
Date/Time
EST
Temp
°C
App
Temp
°C
Dew
Point
Rel
Hum
%
Delta-T
°C
Wind Press
QNH
hPa
Press
MSL
hPa
Rain
since 9 am
mm
Dir
 
Spd
km/h
Gust
km/h
Spd
kts
Gust
kts
30/11:30pm 17.4 15.1 5.0 44 6.0 SE 6 7 3 4 1019.6 1019.3 0.0
30/11:00pm 17.7 16.6 5.0 43 6.1 CALM 0 0 0 0 1019.5 1019.2 0.0
30/10:30pm 18.3 17.1 4.5 40 6.6 CALM 0 0 0 0 1019.5 1019.2 0.0
30/10:00pm 19.9 18.5 5.5 39 7.1 ESE 2 9 1 5 1019.4 1019.1 0.0
30/09:30pm 21.1 18.8 5.5 36 7.8 SSE 7 9 4 5 1019.3 1019.0 0.0
30/09:00pm 20.9 18.5 5.3 36 7.7 SSW 7 9 4 5 1019.1 1018.8 0.0
30/08:30pm 21.8 19.5 5.7 35 8.1 SW 7 9 4 5 1018.9 1018.6 0.0
30/08:00pm 22.5 20.1 5.4 33 8.6 SSW 7 9 4 5 1018.5 1018.2 0.0
30/07:30pm 22.9 20.5 4.4 30 9.2 SSE 6 7 3 4 1018.1 1017.8 0.0
30/07:00pm 25.4 23.2 5.1 27 10.3 SE 6 9 3 5 1017.9 1017.5 0.0
30/06:30pm 26.8 24.5 4.6 24 11.3 SE 6 9 3 5 1017.7 1017.3 0.0
30/06:00pm 28.7 26.4 5.5 23 12.1 SSE 7 13 4 7 1017.5 1017.1 0.0
30/05:30pm 29.2 26.2 6.0 23 12.3 SSE 11 17 6 9 1017.5 1017.1 0.0
30/05:00pm 30.0 27.4 6.0 22 12.7 SSE 9 17 5 9 1017.3 1016.9 0.0
30/04:30pm 30.5 28.9 6.4 22 12.9 NE 4 13 2 7 1017.3 1016.9 0.0
30/04:00pm 29.6 26.7 6.3 23 12.4 S 11 19 6 10 1017.4 1017.0 0.0
30/03:30pm 30.1 28.0 6.7 23 12.6 SSW 7 15 4 8 1017.5 1017.1 0.0
30/03:00pm 30.2 28.3 6.8 23 12.6 N 6 11 3 6 1017.8 1017.4 0.0
30/02:30pm 30.5 27.9 7.7 24 12.5 SE 11 20 6 11 1018.2 1017.9 0.0
30/02:00pm 28.9 26.1 6.9 25 11.8 E 11 19 6 10 1018.8 1018.5 0.0
30/01:30pm 29.2 26.8 7.2 25 11.9 ESE 9 19 5 10 1019.2 1018.9 0.0
30/01:00pm 28.6 26.5 8.3 28 11.1 NE 9 13 5 7 1020.0 1019.6 0.0
30/12:30pm 28.9 26.6 9.1 29 11.0 E 11 20 6 11 1020.4 1020.0 0.0
30/12:00pm 28.0 25.1 8.3 29 10.7 ENE 13 19 7 10 1020.9 1020.5 0.0
30/11:30am 27.0 23.7 8.0 30 10.3 E 15 22 8 12 1021.4 1021.0 0.0
30/11:00am 25.8 23.3 6.4 29 10.1 E 9 20 5 11 1021.6 1021.2 0.0
30/10:30am 25.1 21.2 5.3 28 10.1 E 15 20 8 11 1021.9 1021.5 0.0
30/10:00am 24.2 20.7 3.5 26 10.1 ESE 11 17 6 9 1022.0 1021.6 0.0
30/09:30am 22.8 19.1 2.3 26 9.7 ESE 11 19 6 10 1021.9 1021.5 0.0
30/09:00am 21.8 17.6 1.5 26 9.4 SE 13 24 7 13 1021.5 1021.1 0.0
30/08:30am 19.0 15.6 -0.4 27 8.5 S 7 9 4 5 1021.3 1020.9 0.0
30/08:00am 16.9 13.5 -0.8 30 7.5 S 7 11 4 6 1020.9 1020.5 0.0
30/07:30am 15.5 12.0 -1.5 31 7.0 S 7 9 4 5 1020.6 1020.2 0.0
30/07:00am 15.6 12.1 -1.4 31 7.0 SSW 7 9 4 5 1020.3 1019.9 0.0
30/06:30am 16.2 12.3 -1.4 30 7.3 SSW 9 11 5 6 1019.8 1019.5 0.0
30/06:00am 16.7 12.8 -1.4 29 7.6 S 9 11 5 6 1019.7 1019.4 0.0
30/05:30am 17.4 13.1 -1.3 28 7.9 SSW 11 15 6 8 1019.6 1019.3 0.0
30/05:00am 17.5 13.6 -1.7 27 8.0 SSW 9 13 5 7 1019.7 1019.4 0.0
30/04:30am 19.8 15.1 -1.9 23 9.3 SSE 13 24 7 13 1019.7 1019.4 0.0
30/04:00am 19.6 15.8 -0.9 25 8.9 S 9 22 5 12 1019.7 1019.4 0.0
30/03:30am 19.7 15.7 0.2 27 8.7 S 11 17 6 9 1019.6 1019.3 0.0
30/03:00am 17.5 14.5 0.6 32 7.4 SSE 6 9 3 5 1019.8 1019.5 0.0
30/02:30am 18.5 15.2 2.4 34 7.4 SE 9 13 5 7 1020.1 1019.7 0.0
30/02:00am 19.6 15.6 2.9 33 7.8 SE 13 17 7 9 1020.3 1019.9 0.0
30/01:30am 19.5 16.0 3.6 35 7.6 SE 11 15 6 8 1020.3 1019.9 0.0
30/01:00am 19.9 16.6 4.4 36 7.5 SE 11 13 6 7 1020.5 1020.1 0.0
30/12:30am 19.8 17.0 5.1 38 7.2 SE 9 13 5 7 1020.6 1020.2 0.0
30/12:00am 20.4 17.2 5.2 37 7.5 SE 11 13 6 7 1020.7 1020.3 0.0
 
Date/Time
EST
Temp
°C
App
Temp
°C
Dew
Point
Rel
Hum
%
Delta-T
°C
Wind Press
QNH
hPa
Press
MSL
hPa
Rain
since 9 am
mm
Dir
 
Spd
km/h
Gust
km/h
Spd
kts
Gust
kts
29/11:30pm 20.6 17.9 5.4 37 7.5 SE 9 13 5 7 1020.8 1020.4 0.0
29/11:00pm 21.5 18.5 5.8 36 7.9 SE 11 15 6 8 1020.9 1020.5 0.0
29/10:30pm 21.2 18.6 5.9 37 7.7 SE 9 13 5 7 1020.6 1020.2 0.0
29/10:00pm 21.8 19.6 6.1 36 7.9 SE 7 13 4 7 1020.7 1020.3 0.0
29/09:30pm 22.7 20.2 6.5 35 8.3 SE 9 13 5 7 1020.7 1020.3 0.0
29/09:00pm 22.3 20.1 6.1 35 8.2 ESE 7 9 4 5 1020.5 1020.1 0.0
29/08:30pm 22.8 20.6 6.1 34 8.5 SE 7 9 4 5 1020.2 1019.8 0.0
29/08:00pm 23.5 21.2 5.9 32 9.0 SE 7 11 4 6 1019.8 1019.5 0.0
29/07:30pm 24.5 22.3 6.3 31 9.4 ESE 7 11 4 6 1019.3 1019.0 0.0
29/07:00pm 25.4 23.2 6.1 29 10.0 ESE 7 11 4 6 1019.0 1018.7 0.0
29/06:30pm 27.0 24.5 6.4 27 10.8 ESE 9 15 5 8 1018.7 1018.4 0.0
29/06:00pm 28.0 25.4 6.2 25 11.5 ESE 9 15 5 8 1018.6 1018.3 0.0
29/05:30pm 28.7 26.4 7.3 26 11.6 SE 9 15 5 8 1018.5 1018.2 0.0
29/05:00pm 28.4 26.0 7.1 26 11.4 SSE 9 17 5 9 1018.5 1018.2 0.0
29/04:30pm 29.1 27.0 8.2 27 11.5 SE 9 17 5 9 1018.5 1018.2 0.0
29/04:00pm 29.2 27.0 7.7 26 11.7 ENE 9 13 5 7 1018.6 1018.3 0.0
29/03:30pm 29.8 27.7 8.2 26 11.9 ESE 9 13 5 7 1018.8 1018.5 0.0
29/03:00pm 29.2 26.3 8.3 27 11.5 SE 13 24 7 13 1019.2 1018.9 0.0
29/02:30pm 29.5 26.6 8.0 26 11.8 E 13 22 7 12 1019.6 1019.3 0.0
29/02:00pm 28.4 25.0 7.6 27 11.2 SE 15 22 8 12 1020.2 1019.8 0.0
29/01:30pm 29.1 26.2 8.2 27 11.5 ESE 13 20 7 11 1020.7 1020.3 0.0
29/01:00pm 28.8 25.8 7.9 27 11.4 SE 13 26 7 14 1021.3 1020.9 0.0
29/12:30pm 27.8 24.0 7.6 28 10.9 E 17 26 9 14 1021.9 1021.5 0.0
29/12:00pm 26.5 22.7 6.0 27 10.6 ESE 15 24 8 13 1022.3 1021.9 0.0
29/11:30am 26.1 21.8 3.4 23 11.3 ESE 15 22 8 12 1022.8 1022.4 0.0
29/11:00am 25.0 20.5 2.4 23 10.9 SE 15 20 8 11 1023.2 1022.8 0.0
29/10:30am 23.9 18.9 1.5 23 10.6 SE 17 24 9 13 1023.4 1023.0 0.0
29/10:00am 22.9 17.7 0.1 22 10.4 ESE 17 26 9 14 1023.6 1023.2 0.0
29/09:30am 22.2 17.3 -0.5 22 10.2 SE 15 24 8 13 1023.5 1023.1 0.0
29/09:00am 21.0 16.4 -4.2 18 10.3 SSE 11 17 6 9 1023.3 1022.9 0.0
29/08:30am 19.6 14.5 -5.3 18 9.9 S 13 19 7 10 1023.0 1022.6 0.0
29/08:00am 18.0 13.7 -4.6 21 8.9 SSW 9 15 5 8 1022.7 1022.3 0.0
29/07:30am 17.0 12.3 -4.8 22 8.5 S 11 15 6 8 1022.3 1021.9 0.0
29/07:00am 16.7 12.4 -4.5 23 8.3 S 9 13 5 7 1021.8 1021.4 0.0
29/06:30am 17.1 12.5 -4.2 23 8.4 S 11 15 6 8 1021.4 1021.0 0.0
29/06:00am 16.7 12.5 -3.9 24 8.2 S 9 11 5 6 1021.2 1020.8 0.0
29/05:30am 16.5 12.7 -3.6 25 8.0 S 7 9 4 5 1021.1 1020.7 0.0
29/05:00am 16.7 13.0 -2.9 26 7.9 S 7 11 4 6 1021.1 1020.7 0.0
29/04:30am 17.1 13.1 -2.5 26 8.1 S 9 11 5 6 1021.2 1020.8 0.0
29/04:00am 17.5 13.6 -1.7 27 8.0 S 9 15 5 8 1021.1 1020.7 0.0
29/03:30am 17.8 13.6 -0.9 28 8.0 S 11 17 6 9 1021.3 1020.9 0.0
29/03:00am 18.1 14.0 -0.2 29 7.9 S 11 15 6 8 1021.3 1020.9 0.0
29/02:30am 18.7 14.3 0.3 29 8.1 S 13 19 7 10 1021.5 1021.1 0.0
29/02:00am 19.2 14.9 1.2 30 8.1 S 13 19 7 10 1021.8 1021.4 0.0
29/01:30am 19.3 16.0 2.2 32 7.9 S 9 15 5 8 1021.9 1021.5 0.0
29/01:00am 19.7 16.3 2.1 31 8.1 S 9 11 5 6 1022.0 1021.6 0.0
29/12:30am 20.8 17.4 1.6 28 8.9 S 9 13 5 7 1022.0 1021.6 0.0
29/12:00am 21.9 17.9 2.6 28 9.1 SSE 13 20 7 11 1022.1 1021.7 0.0
 
Date/Time
EST
Temp
°C
App
Temp
°C
Dew
Point
Rel
Hum
%
Delta-T
°C
Wind Press
QNH
hPa
Press
MSL
hPa
Rain
since 9 am
mm
Dir
 
Spd
km/h
Gust
km/h
Spd
kts
Gust
kts
28/11:30pm 21.8 18.6 3.0 29 9.0 SSE 9 15 5 8 1022.2 1021.8 0.0
28/11:00pm 22.3 19.1 2.9 28 9.3 SE 9 15 5 8 1022.3 1021.9 0.0
28/10:30pm 22.9 19.3 2.9 27 9.6 SE 11 17 6 9 1022.2 1021.8 0.0
28/10:00pm 23.5 19.6 3.4 27 9.8 SE 13 19 7 10 1022.2 1021.8 0.0
28/09:30pm 23.8 19.9 3.2 26 10.0 SE 13 19 7 10 1022.2 1021.8 0.0

Other Formats:

Comma delimited format used in spreadsheet applications
http://www.bom.gov.au/fwo/IDQ60801/IDQ60801.94261.axf

JavaScript Object Notation format (JSON) in row-major order
http://www.bom.gov.au/fwo/IDQ60801/IDQ60801.94261.json